Time;durP1;ratioP1;P1;durP2;ratioP2;P2;SDS_P1;SDS_P2;PMS_P1;PMS_P2;Temp;Humidity;BMP_temperature;BMP_pressure;BME280_temperature;BME280_humidity;BME280_pressure;Samples;Min_cycle;Max_cycle;Signal;HPM_P1;HPM_P2
2021/05/11 00:01:14;;;;;;;;;;;;;;;18.84;48.03;99712.19;4391697;32;32462;-77
2021/05/11 00:03:47;;;;;;;;;;;;;;;18.54;48.89;99711.59;4403847;32;34202;-78
2021/05/11 00:06:18;;;;;;;;;;;;;;;18.66;47.96;99711.87;4396021;32;35228;-79
2021/05/11 00:08:48;;;;;;;;;;;;;;;18.66;48.25;99699.25;4392928;32;34412;-77
2021/05/11 00:11:18;;;;;;;;;;;;;;;18.24;49.56;99703.87;4387885;32;32477;-77
2021/05/11 00:13:48;;;;;;;;;;;;;;;18.29;49.61;99705.00;4408939;32;32669;-77
2021/05/11 00:16:18;;;;;;;;;;;;;;;18.44;49.34;99705.72;4388094;32;34392;-76
2021/05/11 00:18:45;;;;;;;;;;;;;;;18.38;49.11;99703.81;4393197;32;34019;-77
2021/05/11 00:21:15;;;;;;;;;;;;;;;18.67;47.43;99700.06;4411835;32;32560;-76
2021/05/11 00:24:04;;;;;;;;;;;;;;;18.56;48.05;99701.47;4395337;32;32936;-77
2021/05/11 00:26:52;;;;;;;;;;;;;;;18.65;47.93;99702.13;4397016;32;34522;-77
2021/05/11 00:29:23;;;;;;;;;;;;;;;18.76;47.73;99698.88;4389987;32;33853;-77
2021/05/11 00:31:52;;;;;;;;;;;;;;;18.81;47.55;99699.13;4391803;32;33336;-79
2021/05/11 00:34:40;;;;;;;;;;;;;;;18.89;47.44;99699.78;4404196;32;32903;-76
2021/05/11 00:37:11;;;;;;;;;;;;;;;18.44;48.81;99696.81;4392286;32;34594;-77
2021/05/11 00:39:57;;;;;;;;;;;;;;;18.79;47.42;99698.50;4401421;32;34175;-76
2021/05/11 00:42:27;;;;;;;;;;;;;;;19.03;46.82;99692.59;4386195;32;32804;-77
2021/05/11 00:44:57;;;;;;;;;;;;;;;18.98;47.65;99697.78;4379688;32;33777;-77
2021/05/11 00:47:25;;;;;;;;;;;;;;;18.86;47.61;99699.34;4376363;32;33822;-78
2021/05/11 00:50:14;;;;;;;;;;;;;;;18.90;47.92;99696.03;4393425;32;34517;-77
2021/05/11 00:52:44;;;;;;;;;;;;;;;18.81;47.97;99693.72;4392327;32;32300;-78
2021/05/11 00:55:17;;;;;;;;;;;;;;;18.59;48.53;99703.75;4412382;32;33617;-77
2021/05/11 00:57:51;;;;;;;;;;;;;;;18.41;48.80;99705.28;4390647;32;33983;-78
2021/05/11 01:00:20;;;;;;;;;;;;;;;18.51;48.57;99697.69;4393759;32;32965;-77
2021/05/11 01:02:49;;;;;;;;;;;;;;;18.43;48.89;99695.16;4393943;32;32535;-77
2021/05/11 01:05:18;;;;;;;;;;;;;;;18.38;49.51;99701.13;4380271;32;33816;-77
2021/05/11 01:07:48;;;;;;;;;;;;;;;18.63;49.00;99693.41;4382188;32;34020;-77
2021/05/11 01:10:17;;;;;;;;;;;;;;;18.63;48.80;99699.66;4379420;32;33579;-77
2021/05/11 01:13:07;;;;;;;;;;;;;;;18.59;49.06;99698.38;4409837;32;32956;-77
2021/05/11 01:15:37;;;;;;;;;;;;;;;18.57;48.97;99700.44;4405020;32;33948;-78
2021/05/11 01:18:31;;;;;;;;;;;;;;;18.63;48.68;99702.34;4390716;32;33908;-78
2021/05/11 01:24:05;;;;;;;;;;;;;;;18.55;48.94;99698.94;4410102;32;33285;-77
2021/05/11 01:26:47;;;;;;;;;;;;;;;18.52;49.15;99702.06;4390229;32;32208;-77
2021/05/11 01:49:15;;;;;;;;;;;;;;;17.33;52.82;99694.03;4396663;32;34083;-79
2021/05/11 02:24:27;;;;;;;;;;;;;;;17.50;52.04;99686.41;4396830;32;33235;-78
2021/05/11 02:26:54;;;;;;;;;;;;;;;17.49;52.01;99689.31;4379627;32;35224;-80
2021/05/11 02:29:23;;;;;;;;;;;;;;;17.29;52.71;99685.53;4387995;32;35475;-79
2021/05/11 02:32:07;;;;;;;;;;;;;;;17.44;52.53;99685.53;4389121;32;32180;-79
2021/05/11 02:34:51;;;;;;;;;;;;;;;17.48;52.10;99678.72;4395896;32;34014;-79
2021/05/11 02:37:20;;;;;;;;;;;;;;;17.61;51.64;99677.84;4407762;32;34906;-79
2021/05/11 02:40:11;;;;;;;;;;;;;;;17.58;51.68;99670.12;4405044;32;34699;-78
2021/05/11 02:43:03;;;;;;;;;;;;;;;17.34;52.28;99658.06;4385260;32;33172;-79
2021/05/11 02:45:51;;;;;;;;;;;;;;;17.29;52.35;99658.63;4404466;32;34778;-79
2021/05/11 02:48:38;;;;;;;;;;;;;;;17.31;52.26;99661.12;4405952;32;34777;-79
2021/05/11 02:51:27;;;;;;;;;;;;;;;16.83;53.82;99661.78;4407555;32;37435;-80
2021/05/11 02:54:15;;;;;;;;;;;;;;;17.31;52.35;99655.75;4387583;32;35394;-79
2021/05/11 02:56:47;;;;;;;;;;;;;;;17.38;52.32;99662.91;4409901;32;34586;-79
2021/05/11 02:59:35;;;;;;;;;;;;;;;17.67;51.37;99652.84;4405577;32;36636;-79
2021/05/11 03:02:22;;;;;;;;;;;;;;;17.53;51.73;99669.91;4404718;32;33680;-79
2021/05/11 03:05:05;;;;;;;;;;;;;;;17.68;51.23;99673.34;4397248;32;33055;-78
2021/05/11 03:07:37;;;;;;;;;;;;;;;17.40;52.27;99670.75;4393144;32;33239;-79
2021/05/11 03:10:24;;;;;;;;;;;;;;;17.32;52.36;99668.16;4406365;32;34520;-78
2021/05/11 03:13:14;;;;;;;;;;;;;;;17.40;52.20;99670.75;4406572;32;34429;-79
2021/05/11 03:15:48;;;;;;;;;;;;;;;17.41;52.08;99670.59;4390804;32;32034;-79
2021/05/11 03:18:18;;;;;;;;;;;;;;;17.46;51.87;99675.41;4390508;32;33145;-80
2021/05/11 03:21:05;;;;;;;;;;;;;;;17.44;51.68;99664.81;4388101;32;33468;-79
2021/05/11 03:24:13;;;;;;;;;;;;;;;17.48;51.71;99670.66;4377880;32;832038;-79
2021/05/11 03:27:00;;;;;;;;;;;;;;;17.38;52.07;99665.59;4399708;32;31579;-79
2021/05/11 03:29:37;;;;;;;;;;;;;;;17.37;52.16;99666.59;4401946;32;33276;-79
2021/05/11 03:32:07;;;;;;;;;;;;;;;17.05;52.99;99672.41;4377967;32;34676;-79
2021/05/11 03:35:14;;;;;;;;;;;;;;;16.67;54.36;99675.41;4403273;32;33385;-80
2021/05/11 03:37:42;;;;;;;;;;;;;;;17.22;53.07;99681.06;4406774;32;32628;-78
2021/05/11 03:40:26;;;;;;;;;;;;;;;17.00;53.32;99674.81;4384104;32;34084;-79
2021/05/11 03:43:18;;;;;;;;;;;;;;;17.18;53.01;99685.19;4387854;32;33506;-79
2021/05/11 03:45:53;;;;;;;;;;;;;;;17.19;52.95;99678.78;4387023;32;34416;-78
2021/05/11 03:48:26;;;;;;;;;;;;;;;17.40;52.32;99677.00;4404644;32;33759;-78
2021/05/11 03:51:17;;;;;;;;;;;;;;;17.25;52.75;99681.53;4403904;32;33413;-78
2021/05/11 03:54:06;;;;;;;;;;;;;;;17.40;52.55;99679.69;4392927;32;34410;-78
2021/05/11 03:56:37;;;;;;;;;;;;;;;17.47;52.16;99677.06;4397164;32;34566;-77
2021/05/11 03:59:22;;;;;;;;;;;;;;;17.05;53.63;99675.09;4392003;32;31998;-77
2021/05/11 04:01:56;;;;;;;;;;;;;;;17.19;52.93;99676.91;4396877;32;33608;-78
2021/05/11 04:04:33;;;;;;;;;;;;;;;17.32;52.54;99677.06;4402615;32;34453;-78
2021/05/11 04:07:04;;;;;;;;;;;;;;;17.06;53.68;99676.75;4378565;32;33370;-78
2021/05/11 04:09:56;;;;;;;;;;;;;;;17.08;53.08;99677.41;4403082;32;32439;-78
2021/05/11 04:18:21;;;;;;;;;;;;;;;17.47;52.09;99677.88;4394918;32;35655;-78
2021/05/11 04:21:10;;;;;;;;;;;;;;;17.22;52.97;99676.53;4402938;32;32469;-77
2021/05/11 04:23:59;;;;;;;;;;;;;;;17.65;51.85;99678.28;4409711;32;33715;-77
2021/05/11 04:26:32;;;;;;;;;;;;;;;17.57;52.19;99670.34;4378147;32;36767;-78
2021/05/11 04:29:02;;;;;;;;;;;;;;;17.76;51.86;99667.84;4404529;32;34510;-78
2021/05/11 04:31:39;;;;;;;;;;;;;;;17.86;51.34;99672.91;4404018;32;33028;-79
2021/05/11 04:34:07;;;;;;;;;;;;;;;18.12;50.25;99675.78;4394247;32;32944;-79
2021/05/11 04:36:39;;;;;;;;;;;;;;;18.20;49.86;99672.97;4389614;32;35306;-78
2021/05/11 04:39:12;;;;;;;;;;;;;;;17.69;51.04;99674.19;4390845;32;34948;-78
2021/05/11 04:41:45;;;;;;;;;;;;;;;17.77;50.54;99668.69;4398479;32;32559;-78
2021/05/11 04:44:21;;;;;;;;;;;;;;;17.46;51.49;99670.00;4403305;32;33162;-78
2021/05/11 04:47:46;;;;;;;;;;;;;;;17.89;50.39;99669.81;4406556;32;35112;-78
2021/05/11 04:50:18;;;;;;;;;;;;;;;17.95;49.97;99669.06;4389847;32;33137;-77
2021/05/11 04:57:20;;;;;;;;;;;;;;;;;;;;;
2021/05/11 05:01:32;;;;;;;;;;;;;;;18.44;48.96;99675.25;4337458;32;34959;-78
2021/05/11 05:07:59;;;;;;;;;;;;;;;18.37;49.15;99672.53;4334922;32;32921;-77
2021/05/11 05:14:29;;;;;;;;;;;;;;;18.66;47.68;99672.28;4300763;33;34862;-78
2021/05/11 05:24:34;;;;;;;;;;;;;;;18.85;47.32;99681.50;4197772;28;19999;-88
2021/05/11 05:27:26;;;;;;;;;;;;;;;18.99;47.06;99678.69;4270429;33;34778;-90
2021/05/11 05:29:57;;;;;;;;;;;;;;;18.99;46.58;99675.16;4278538;33;34973;-88
2021/05/11 05:32:25;;;;;;;;;;;;;;;19.37;45.79;99676.38;4299391;33;31774;-87
2021/05/11 05:34:52;;;;;;;;;;;;;;;19.68;44.85;99669.41;4315304;33;34861;-90
2021/05/11 05:37:21;;;;;;;;;;;;;;;19.31;46.04;99671.78;4317825;33;34864;-90
2021/05/11 05:39:56;;;;;;;;;;;;;;;19.39;45.66;99677.00;4330640;33;33539;-89
2021/05/11 05:42:25;;;;;;;;;;;;;;;19.65;44.69;99679.78;4330735;33;33385;-85
2021/05/11 05:44:52;;;;;;;;;;;;;;;19.78;43.94;99675.22;4298129;33;34531;-89
2021/05/11 05:47:22;;;;;;;;;;;;;;;19.62;44.95;99670.22;4304172;33;33796;-90
2021/05/11 05:50:04;;;;;;;;;;;;;;;20.03;43.21;99664.66;4306687;33;34869;-88
2021/05/11 05:52:35;;;;;;;;;;;;;;;20.15;42.43;99669.25;4307476;33;33873;-87
2021/05/11 05:55:05;;;;;;;;;;;;;;;20.09;41.67;99667.38;4304228;33;33279;-88
2021/05/11 05:57:40;;;;;;;;;;;;;;;20.01;42.50;99662.16;4320577;32;35130;-85
2021/05/11 06:00:09;;;;;;;;;;;;;;;20.07;41.23;99665.91;4367818;32;34539;-86
2021/05/11 06:02:44;;;;;;;;;;;;;;;20.09;41.36;99661.16;4390494;32;33106;-87
2021/05/11 06:05:12;;;;;;;;;;;;;;;20.35;41.42;99659.25;4387880;32;34377;-88
2021/05/11 06:07:48;;;;;;;;;;;;;;;20.51;40.54;99669.66;4379552;32;35744;-86
2021/05/11 06:10:16;;;;;;;;;;;;;;;20.25;41.12;99663.41;4365198;32;35056;-87
2021/05/11 06:17:59;;;;;;;;;;;;;;;20.59;40.63;99661.31;4381427;32;35807;-88
2021/05/11 06:20:33;;;;;;;;;;;;;;;20.62;41.39;99658.19;4364824;32;35140;-84
2021/05/11 06:23:01;;;;;;;;;;;;;;;20.82;40.72;99665.22;4364443;32;32971;-86
2021/05/11 06:25:28;;;;;;;;;;;;;;;20.53;41.56;99662.97;4391328;32;33597;-87
2021/05/11 06:27:56;;;;;;;;;;;;;;;20.74;40.87;99665.44;4375287;32;35710;-83
2021/05/11 06:30:24;;;;;;;;;;;;;;;20.90;39.71;99656.88;4363005;32;34594;-86
2021/05/11 06:32:52;;;;;;;;;;;;;;;20.84;40.52;99657.69;4376283;32;32921;-83
2021/05/11 06:35:23;;;;;;;;;;;;;;;20.55;41.23;99654.66;4376725;32;34332;-83
2021/05/11 06:37:58;;;;;;;;;;;;;;;20.71;40.57;99655.03;4392718;32;34692;-87
2021/05/11 06:40:26;;;;;;;;;;;;;;;21.04;40.10;99660.34;4363009;32;35047;-83
2021/05/11 06:42:55;;;;;;;;;;;;;;;21.18;39.95;99654.66;4372858;32;33695;-87
2021/05/11 06:50:44;;;;;;;;;;;;;;;21.18;39.77;99653.84;4378358;32;33902;-84
2021/05/11 06:53:16;;;;;;;;;;;;;;;21.41;39.96;99651.44;4379470;32;33630;-81
2021/05/11 06:55:46;;;;;;;;;;;;;;;21.70;38.21;99649.00;4390996;32;34290;-88
2021/05/11 06:58:14;;;;;;;;;;;;;;;21.41;39.93;99654.97;4378688;32;35799;-83
2021/05/11 07:00:44;;;;;;;;;;;;;;;21.48;39.87;99652.22;4362833;32;34591;-81
2021/05/11 07:03:11;;;;;;;;;;;;;;;21.56;39.21;99641.16;4376484;32;33080;-86
2021/05/11 07:05:39;;;;;;;;;;;;;;;21.26;40.33;99650.91;4366742;32;33581;-84
2021/05/11 07:08:11;;;;;;;;;;;;;;;21.33;40.01;99635.47;4392263;32;34972;-86
2021/05/11 07:10:41;;;;;;;;;;;;;;;21.82;39.05;99632.88;4374112;32;35828;-83
2021/05/11 07:13:10;;;;;;;;;;;;;;;21.64;39.35;99639.03;4372065;32;32939;-89
2021/05/11 07:15:40;;;;;;;;;;;;;;;21.83;39.29;99639.97;4373907;32;33295;-85
2021/05/11 07:18:10;;;;;;;;;;;;;;;22.04;38.71;99637.72;4372391;32;33617;-85
2021/05/11 07:20:39;;;;;;;;;;;;;;;22.27;37.90;99628.97;4359570;32;33067;-82
2021/05/11 07:23:07;;;;;;;;;;;;;;;22.41;37.87;99630.50;4372708;32;32760;-80
2021/05/11 07:25:39;;;;;;;;;;;;;;;21.86;38.79;99629.50;4355265;32;33893;-83
2021/05/11 07:29:03;;;;;;;;;;;;;;;21.88;38.64;99627.41;4384699;32;35072;-84
2021/05/11 07:30:57;;;;;;;;;;;;;;;22.29;37.98;99638.50;4386709;32;34739;-86
2021/05/11 07:33:28;;;;;;;;;;;;;;;22.47;37.93;99637.75;4357541;32;33693;-85
2021/05/11 07:35:56;;;;;;;;;;;;;;;22.51;36.89;99633.53;4359812;32;35095;-85
2021/05/11 07:38:25;;;;;;;;;;;;;;;22.87;36.98;99637.09;4375002;32;35109;-86
2021/05/11 07:40:52;;;;;;;;;;;;;;;23.19;37.02;99635.87;4374265;32;34650;-85
2021/05/11 07:43:21;;;;;;;;;;;;;;;23.26;36.07;99644.78;4360692;32;32153;-85
2021/05/11 08:15:37;;;;;;;;;;;;;;;24.33;32.69;99653.59;4373277;32;33120;-84
2021/05/11 08:23:25;;;;;;;;;;;;;;;24.43;33.00;99641.06;4374070;32;34088;-79
2021/05/11 08:28:42;;;;;;;;;;;;;;;24.89;32.34;99646.50;4372723;32;32902;-82
2021/05/11 08:31:10;;;;;;;;;;;;;;;24.81;32.11;99635.97;4374869;32;35234;-83
2021/05/11 08:33:38;;;;;;;;;;;;;;;24.88;31.88;99642.13;4372138;32;35290;-84
2021/05/11 08:36:06;;;;;;;;;;;;;;;24.94;32.55;99632.97;4372993;32;33884;-84
2021/05/11 08:38:33;;;;;;;;;;;;;;;24.98;32.60;99639.62;4361123;32;34177;-84
2021/05/11 08:41:02;;;;;;;;;;;;;;;25.02;32.71;99637.25;4374765;32;34908;-78
2021/05/11 08:43:29;;;;;;;;;;;;;;;25.44;32.11;99641.38;4385387;32;34318;-82
2021/05/11 08:45:58;;;;;;;;;;;;;;;25.58;31.59;99642.75;4374519;32;32700;-83
2021/05/11 08:48:26;;;;;;;;;;;;;;;25.49;31.67;99642.31;4360229;32;33787;-85
2021/05/11 08:51:16;;;;;;;;;;;;;;;25.54;31.06;99647.03;4372466;32;35109;-84
2021/05/11 09:07:49;;;;;;;;;;;;;;;25.43;31.60;99623.38;4394742;32;33303;-80
2021/05/11 09:54:39;;;;;;;;;;;;;;;27.34;28.09;99591.47;4424106;32;34727;-81
2021/05/11 10:13:23;;;;;;;;;;;;;;;27.64;26.55;99591.78;4339015;32;35239;-82
2021/05/11 10:31:26;;;;;;;;;;;;;;;27.86;26.43;99562.47;4314677;33;33735;-81
2021/05/11 10:47:02;;;;;;;;;;;;;;;29.82;23.38;99540.34;4352895;32;34579;-81
2021/05/11 10:49:32;;;;;;;;;;;;;;;30.29;22.50;99543.63;4360015;32;33048;-82
2021/05/11 10:52:22;;;;;;;;;;;;;;;30.45;22.42;99536.19;4341891;32;33214;-82
2021/05/11 10:54:55;;;;;;;;;;;;;;;30.76;21.47;99533.06;4341946;32;34829;-83
2021/05/11 10:57:53;;;;;;;;;;;;;;;30.91;20.98;99528.34;4341732;32;34504;-83
2021/05/11 11:00:31;;;;;;;;;;;;;;;30.97;21.19;99527.22;4352005;32;34061;-86
2021/05/11 11:12:34;;;;;;;;;;;;;;;;;;;;;
2021/05/11 11:16:22;;;;;;;;;;;;;;;32.36;19.69;99497.00;4360229;32;32858;-83
2021/05/11 11:19:32;;;;;;;;;;;;;;;;;;;;;
2021/05/11 11:32:21;;;;;;;;;;;;;;;33.91;16.44;99478.28;4187869;26;36037;-81
2021/05/11 11:34:56;;;;;;;;;;;;;;;33.27;18.79;99477.38;4398224;32;31193;-77
2021/05/11 11:37:26;;;;;;;;;;;;;;;32.88;17.86;99468.56;4412681;32;32554;-83
2021/05/11 11:39:56;;;;;;;;;;;;;;;33.46;19.14;99456.94;4408467;32;33527;-78
2021/05/11 11:42:24;;;;;;;;;;;;;;;33.99;18.14;99458.25;4413824;32;34444;-82
2021/05/11 11:44:57;;;;;;;;;;;;;;;33.34;17.96;99450.25;4415161;32;33515;-80
2021/05/11 11:47:24;;;;;;;;;;;;;;;32.57;18.66;99448.81;4428772;32;32712;-83
2021/05/11 11:49:54;;;;;;;;;;;;;;;32.86;19.02;99443.25;4402701;32;33425;-84
2021/05/11 11:55:12;;;;;;;;;;;;;;;33.32;18.48;99435.94;4412424;32;34322;-80
2021/05/11 11:57:55;;;;;;;;;;;;;;;32.61;19.15;99429.75;4414349;32;33402;-83
2021/05/11 12:00:29;;;;;;;;;;;;;;;33.07;20.31;99426.09;4416807;32;33295;-80
2021/05/11 12:02:59;;;;;;;;;;;;;;;32.95;18.12;99425.75;4414155;32;35064;-81
2021/05/11 12:05:31;;;;;;;;;;;;;;;33.09;18.26;99409.25;4402703;32;32899;-82
2021/05/11 12:10:28;;;;;;;;;;;;;;;33.04;17.78;99406.59;4430031;32;34578;-82
2021/05/11 12:12:56;;;;;;;;;;;;;;;33.11;17.61;99396.00;4409315;32;35031;-79
2021/05/11 12:15:24;;;;;;;;;;;;;;;33.22;17.22;99398.28;4413624;32;35275;-80
2021/05/11 12:17:59;;;;;;;;;;;;;;;32.91;18.09;99391.63;4414095;32;33627;-79
2021/05/11 12:20:28;;;;;;;;;;;;;;;32.82;18.23;99387.91;4429727;32;33772;-80
2021/05/11 12:23:05;;;;;;;;;;;;;;;32.33;18.86;99386.63;4413566;32;35970;-83
2021/05/11 12:25:34;;;;;;;;;;;;;;;33.82;18.53;99377.13;4414497;32;34798;-82
2021/05/11 12:28:02;;;;;;;;;;;;;;;32.98;19.06;99364.50;4402130;32;33344;-86
2021/05/11 12:30:37;;;;;;;;;;;;;;;32.60;18.01;99379.38;4401778;32;33858;-83
2021/05/11 12:33:15;;;;;;;;;;;;;;;32.96;18.69;99372.25;4402668;32;32586;-84
2021/05/11 12:35:43;;;;;;;;;;;;;;;33.89;19.06;99361.84;4398967;32;34988;-82
2021/05/11 12:38:13;;;;;;;;;;;;;;;34.34;16.99;99358.13;4411444;32;33158;-81
2021/05/11 12:40:52;;;;;;;;;;;;;;;34.37;16.81;99343.72;4386635;32;33944;-79
2021/05/11 12:43:36;;;;;;;;;;;;;;;33.61;16.45;99338.06;4413610;32;34972;-81
2021/05/11 12:46:24;;;;;;;;;;;;;;;32.80;17.00;99347.97;4414952;32;34013;-79
2021/05/11 12:49:01;;;;;;;;;;;;;;;31.42;18.65;99350.19;4400467;32;32637;-82
2021/05/11 12:51:31;;;;;;;;;;;;;;;31.49;18.50;99354.22;4414783;32;33948;-80
2021/05/11 12:54:02;;;;;;;;;;;;;;;31.61;19.18;99342.84;4412216;32;35448;-79
2021/05/11 13:09:23;;;;;;;;;;;;;;;32.33;18.95;99326.88;4353383;32;35865;-78
2021/05/11 13:16:18;;;;;;;;;;;;;;;32.58;18.33;99310.00;4367214;32;35412;-82
2021/05/11 13:26:52;;;;;;;;;;;;;;;33.76;17.35;99293.63;4354595;32;33391;-84
2021/05/11 13:29:32;;;;;;;;;;;;;;;33.29;17.40;99299.47;4350746;32;34296;-79
2021/05/11 13:32:03;;;;;;;;;;;;;;;32.67;17.29;99294.44;4367818;32;33200;-82
2021/05/11 13:34:34;;;;;;;;;;;;;;;33.16;17.39;99286.47;4364608;32;33524;-79
2021/05/11 13:37:02;;;;;;;;;;;;;;;32.81;17.26;99283.47;4393787;32;34994;-81
2021/05/11 13:39:30;;;;;;;;;;;;;;;33.30;17.88;99281.00;4399177;32;34819;-78
2021/05/11 13:41:57;;;;;;;;;;;;;;;33.36;16.95;99277.84;4386765;32;32775;-83
2021/05/11 13:44:25;;;;;;;;;;;;;;;33.33;17.08;99267.44;4383488;32;34678;-76
2021/05/11 13:46:52;;;;;;;;;;;;;;;33.51;17.14;99265.69;4390054;32;35130;-81
2021/05/11 13:49:21;;;;;;;;;;;;;;;33.07;18.13;99265.38;4414660;32;34450;-80
2021/05/11 13:51:49;;;;;;;;;;;;;;;33.99;16.87;99265.81;4398672;32;33386;-80
2021/05/11 13:54:18;;;;;;;;;;;;;;;33.40;17.17;99253.22;4389618;32;34036;-82
2021/05/11 14:04:53;;;;;;;;;;;;;;;33.71;18.01;99243.22;4418232;32;33748;-80
2021/05/11 14:17:41;;;;;;;;;;;;;;;33.33;17.34;99231.56;4383705;32;33885;-82
2021/05/11 14:20:36;;;;;;;;;;;;;;;;;;;;;
2021/05/11 14:27:27;;;;;;;;;;;;;;;34.03;16.65;99221.03;4363427;32;33222;-77
2021/05/11 14:30:59;;;;;;;;;;;;;;;33.20;17.09;99218.53;4387689;32;33350;-83
2021/05/11 14:46:09;;;;;;;;;;;;;;;33.13;17.26;99206.28;4370256;32;35485;-83
2021/05/11 14:52:12;;;;;;;;;;;;;;;;;;;;;
2021/05/11 15:04:37;;;;;;;;;;;;;;;;;;;;;
2021/05/11 15:07:33;;;;;;;;;;;;;;;35.38;16.80;99199.13;4365651;32;33853;-82
2021/05/11 15:41:40;;;;;;;;;;;;;;;34.17;17.93;99159.94;3737364;27;33772;-82
2021/05/11 15:44:09;;;;;;;;;;;;;;;34.37;17.57;99153.94;4368369;32;31075;-82
2021/05/11 15:46:38;;;;;;;;;;;;;;;34.04;16.90;99148.94;4380472;32;34293;-82
2021/05/11 15:49:06;;;;;;;;;;;;;;;32.97;17.74;99150.62;4379381;32;34525;-81
2021/05/11 15:51:36;;;;;;;;;;;;;;;33.85;17.24;99142.75;4372225;32;32765;-82
2021/05/11 15:54:03;;;;;;;;;;;;;;;33.90;17.30;99148.16;4388983;32;34040;-82
2021/05/11 15:56:31;;;;;;;;;;;;;;;33.61;17.46;99142.19;4388515;32;35983;-82
2021/05/11 15:59:00;;;;;;;;;;;;;;;33.62;18.24;99148.50;4386587;32;34437;-82
2021/05/11 16:01:29;;;;;;;;;;;;;;;32.35;18.20;99142.09;4385425;32;33694;-82
2021/05/11 16:04:16;;;;;;;;;;;;;;;32.92;18.03;99133.38;4388103;32;35034;-82
2021/05/11 16:06:44;;;;;;;;;;;;;;;33.95;18.00;99134.22;4369242;32;36639;-81
2021/05/11 16:09:11;;;;;;;;;;;;;;;32.98;18.08;99140.41;4364436;32;34806;-79
2021/05/11 16:12:00;;;;;;;;;;;;;;;32.33;18.95;99133.31;4359442;32;32965;-85
2021/05/11 16:14:28;;;;;;;;;;;;;;;32.17;20.02;99129.16;4383004;32;33915;-81
2021/05/11 16:16:57;;;;;;;;;;;;;;;31.59;19.85;99125.84;4385612;32;35242;-81
2021/05/11 16:19:28;;;;;;;;;;;;;;;32.39;19.15;99124.69;4391455;32;35905;-81
2021/05/11 16:21:56;;;;;;;;;;;;;;;31.80;19.89;99131.94;4390018;32;33275;-82
2021/05/11 16:24:26;;;;;;;;;;;;;;;31.84;20.54;99120.03;4387242;32;34845;-82
2021/05/11 16:26:53;;;;;;;;;;;;;;;31.16;20.67;99120.66;4392277;32;35271;-83
2021/05/11 16:29:22;;;;;;;;;;;;;;;30.65;21.27;99114.03;4385850;32;35233;-82
2021/05/11 16:31:50;;;;;;;;;;;;;;;31.48;21.00;99112.53;4386934;32;35149;-81
2021/05/11 16:34:22;;;;;;;;;;;;;;;30.56;21.67;99111.09;4396842;32;33833;-81
2021/05/11 16:36:49;;;;;;;;;;;;;;;30.49;21.86;99118.84;4374466;32;36033;-82
2021/05/11 16:39:19;;;;;;;;;;;;;;;30.66;21.91;99115.69;4365874;32;33113;-81
2021/05/11 16:41:47;;;;;;;;;;;;;;;30.50;22.03;99108.69;4374394;32;33572;-82
2021/05/11 16:44:16;;;;;;;;;;;;;;;30.61;21.83;99108.31;4385985;32;33513;-81
2021/05/11 16:46:48;;;;;;;;;;;;;;;30.02;22.53;99112.38;4376252;32;33856;-82
2021/05/11 16:49:17;;;;;;;;;;;;;;;29.38;23.67;99110.81;4387634;32;35005;-82
2021/05/11 16:51:45;;;;;;;;;;;;;;;29.12;23.64;99112.84;4386611;32;33121;-80
2021/05/11 16:54:13;;;;;;;;;;;;;;;29.03;24.02;99109.06;4359211;32;33131;-81
2021/05/11 16:56:45;;;;;;;;;;;;;;;29.12;24.30;99106.53;4392303;32;35498;-82
2021/05/11 16:59:36;;;;;;;;;;;;;;;28.62;24.92;99098.47;4374243;32;34232;-82
2021/05/11 17:02:04;;;;;;;;;;;;;;;28.99;25.08;99105.22;4371040;32;32724;-82
2021/05/11 17:04:33;;;;;;;;;;;;;;;29.09;25.21;99110.69;4375166;32;35564;-83
2021/05/11 17:07:00;;;;;;;;;;;;;;;28.64;25.86;99112.69;4375190;32;35937;-81
2021/05/11 17:09:32;;;;;;;;;;;;;;;28.84;25.83;99110.75;4389496;32;35251;-82
2021/05/11 17:12:03;;;;;;;;;;;;;;;29.47;24.85;99109.13;4364521;32;31944;-79
2021/05/11 17:14:31;;;;;;;;;;;;;;;29.12;25.53;99109.28;4377667;32;34119;-83
2021/05/11 17:16:59;;;;;;;;;;;;;;;28.62;26.47;99103.94;4372673;32;34222;-82
2021/05/11 17:19:28;;;;;;;;;;;;;;;28.94;26.05;99105.25;4393219;32;34573;-82
2021/05/11 17:21:56;;;;;;;;;;;;;;;28.68;26.40;99100.09;4376239;32;33326;-83
2021/05/11 17:24:43;;;;;;;;;;;;;;;28.15;27.60;99104.22;4366058;32;33404;-82
2021/05/11 17:27:12;;;;;;;;;;;;;;;27.98;27.99;99103.69;4368685;32;35033;-80
2021/05/11 17:29:42;;;;;;;;;;;;;;;28.26;27.53;99097.69;4395938;32;34444;-81
2021/05/11 17:32:31;;;;;;;;;;;;;;;28.12;27.77;99096.56;4384628;32;32927;-81
2021/05/11 17:35:00;;;;;;;;;;;;;;;28.40;27.88;99095.22;4384299;32;33656;-81
2021/05/11 17:37:28;;;;;;;;;;;;;;;27.87;28.06;99098.47;4370614;32;35457;-79
2021/05/11 17:40:17;;;;;;;;;;;;;;;27.88;28.06;99095.50;4384049;32;35311;-81
2021/05/11 17:42:45;;;;;;;;;;;;;;;27.58;28.93;99100.84;4358544;32;31947;-81
2021/05/11 17:45:13;;;;;;;;;;;;;;;27.36;29.67;99096.69;4361329;32;32957;-80
2021/05/11 17:47:51;;;;;;;;;;;;;;;27.38;29.02;99100.81;4385310;32;35217;-80
2021/05/11 17:50:24;;;;;;;;;;;;;;;26.94;30.32;99090.50;4384176;32;33869;-80
2021/05/11 17:53:02;;;;;;;;;;;;;;;27.06;29.66;99091.09;4383940;32;33130;-82
2021/05/11 17:55:31;;;;;;;;;;;;;;;27.32;29.40;99084.69;4384248;32;33837;-83
2021/05/11 17:58:03;;;;;;;;;;;;;;;26.68;30.13;99088.72;4383808;32;34103;-82
2021/05/11 18:00:32;;;;;;;;;;;;;;;27.05;29.65;99083.19;4389437;32;34640;-81
2021/05/11 18:03:00;;;;;;;;;;;;;;;27.33;29.29;99078.97;4373114;32;33599;-82
2021/05/11 18:05:28;;;;;;;;;;;;;;;27.55;29.60;99089.62;4385596;32;34218;-82
2021/05/11 18:08:22;;;;;;;;;;;;;;;27.62;28.98;99088.31;4369824;32;34132;-81
2021/05/11 18:11:09;;;;;;;;;;;;;;;27.47;29.33;99090.19;4383905;32;33458;-81
2021/05/11 18:13:59;;;;;;;;;;;;;;;27.21;30.00;99080.28;4385515;32;33030;-82
2021/05/11 18:16:47;;;;;;;;;;;;;;;27.16;30.21;99085.72;4384433;32;33211;-80
2021/05/11 18:19:19;;;;;;;;;;;;;;;26.65;30.95;99089.28;4382366;32;35689;-81
2021/05/11 18:21:46;;;;;;;;;;;;;;;26.57;31.23;99087.03;4386561;32;34549;-80
2021/05/11 18:24:14;;;;;;;;;;;;;;;27.02;30.48;99078.25;4377247;32;32990;-81
2021/05/11 18:26:46;;;;;;;;;;;;;;;26.83;30.42;99083.38;4383672;32;33338;-81
2021/05/11 18:29:16;;;;;;;;;;;;;;;26.29;31.47;99090.09;4385487;32;35352;-80
2021/05/11 18:31:44;;;;;;;;;;;;;;;25.84;32.50;99086.97;4383792;32;33471;-80
2021/05/11 18:34:12;;;;;;;;;;;;;;;26.08;31.95;99091.03;4371478;32;31801;-80
2021/05/11 18:36:48;;;;;;;;;;;;;;;25.94;31.94;99099.91;4382444;32;34369;-80
2021/05/11 18:39:23;;;;;;;;;;;;;;;25.96;32.36;99095.81;4385589;32;35921;-80
2021/05/11 18:41:53;;;;;;;;;;;;;;;25.65;32.49;99091.12;4395013;32;34311;-80
2021/05/11 18:44:23;;;;;;;;;;;;;;;26.37;32.67;99094.22;4387864;32;32797;-81
2021/05/11 18:46:53;;;;;;;;;;;;;;;26.56;31.79;99099.03;4394218;32;33931;-79
2021/05/11 18:49:21;;;;;;;;;;;;;;;26.78;32.89;99096.97;4384906;32;35217;-80
2021/05/11 18:51:50;;;;;;;;;;;;;;;26.76;32.65;99098.31;4370468;32;34159;-81
2021/05/11 18:54:19;;;;;;;;;;;;;;;26.11;32.08;99100.56;4383409;32;33960;-79
2021/05/11 18:56:50;;;;;;;;;;;;;;;26.29;32.65;99089.25;4358060;32;33134;-80
2021/05/11 18:59:18;;;;;;;;;;;;;;;26.17;32.69;99094.09;4361744;32;35301;-80
2021/05/11 19:01:46;;;;;;;;;;;;;;;26.35;33.41;99091.78;4373119;32;33049;-79
2021/05/11 19:04:19;;;;;;;;;;;;;;;26.45;33.54;99091.84;4384739;32;33607;-80
2021/05/11 19:06:46;;;;;;;;;;;;;;;26.36;33.95;99098.03;4370667;32;34030;-80
2021/05/11 19:09:15;;;;;;;;;;;;;;;26.27;34.06;99094.16;4370382;32;35248;-80
2021/05/11 19:11:44;;;;;;;;;;;;;;;26.36;34.22;99093.41;4358167;32;34216;-80
2021/05/11 19:14:12;;;;;;;;;;;;;;;26.31;34.35;99098.03;4373025;32;32061;-79
2021/05/11 19:16:47;;;;;;;;;;;;;;;26.25;34.32;99088.16;4384845;32;34125;-80
2021/05/11 19:19:15;;;;;;;;;;;;;;;26.17;34.45;99091.34;4387984;32;34420;-81
2021/05/11 19:21:43;;;;;;;;;;;;;;;26.13;34.41;99091.06;4387635;32;35395;-81
2021/05/11 19:24:13;;;;;;;;;;;;;;;26.05;34.40;99085.28;4393485;32;33104;-81
2021/05/11 19:26:49;;;;;;;;;;;;;;;25.95;34.47;99086.00;4395466;32;33570;-80
2021/05/11 19:29:18;;;;;;;;;;;;;;;25.87;34.80;99094.63;4382446;32;36935;-80
2021/05/11 19:31:48;;;;;;;;;;;;;;;25.70;35.42;99091.19;4384300;32;34834;-80
2021/05/11 19:34:20;;;;;;;;;;;;;;;25.67;35.85;99088.16;4387438;32;33407;-81